Rosaria Lauro — IXXO — position and weather

sailwx.info

Track history (hours):
 
Tides and Currents Weather Stations Pressure Air Temp Water Temp Dewpoint Dewpoint Depression Visibility Wind Speed Wind Dir Waves Ship Positions

Rosaria Lauro

Last reported at 2015-May-25 14:33 UTC. Time now 2015-May-25 15:31 UTC.
Position N 40°46' E 013°59'.

Length 40 m; draft 1.1 m.

Type: Passenger vessel. MMSI: 247055900.

Date/timePositionNaut miles runAvg speedWind from/ knotsBaromVisibWave heightAir tempDewpointWater temp
2015-May-25 14:33N 40°46' E 013°59'3 2.5
2015-May-25 13:33N 40°45' E 013°56'1611.7
2015-May-25 12:12N 40°50' E 014°16'1320.9
2015-May-25 11:34N 40°46' E 013°59'6 6.1
2015-May-25 10:33N 40°44' E 013°52'8 7.6
2015-May-25 09:33N 40°47' E 014°01'12 5.9
2015-May-25 07:32N 40°50' E 014°16'1616.5
2015-May-25 06:34N 40°45' E 013°56'0 0.0
2015-May-24 17:04N 40°45' E 013°56'814.7
2015-May-24 16:33N 40°47' E 014°06'9 8.7
2015-May-24 15:33N 40°50' E 014°17'1616.2
2015-May-24 14:33N 40°45' E 013°56'1611.5
2015-May-24 13:12N 40°50' E 014°15'914.4
2015-May-24 12:34N 40°46' E 014°04'4 3.6
2015-May-24 11:33N 40°47' E 014°09'6 5.7
2015-May-24 10:33N 40°49' E 014°16'1515.2
2015-May-24 09:34N 40°45' E 013°57'3 2.7
2015-May-24 08:34N 40°46' E 013°60'1311.8
2015-May-24 07:25N 40°50' E 014°17'1618.8
2015-May-24 06:33N 40°45' E 013°56'0 0.0
2015-May-23 19:11N 40°45' E 013°56'1421.6
2015-May-23 18:33N 40°48' E 014°14'5 5.5
2015-May-23 17:33N 40°46' E 014°07'8 8.1
2015-May-23 16:33N 40°45' E 013°57'1611.6
2015-May-23 15:13N 40°50' E 014°16'1522.6
2015-May-23 14:33N 40°45' E 013°58'1 1.2
2015-May-23 13:33N 40°45' E 013°57'1611.7
2015-May-23 12:13N 40°50' E 014°16'1421.3
2015-May-23 11:33N 40°44' E 013°59'6 5.9
2015-May-23 10:33N 40°44' E 013°52'10 9.6
2015-May-23 09:33N 40°46' E 014°04'10 9.5
2015-May-23 08:29N 40°50' E 014°16'1617.0
2015-May-23 07:34N 40°45' E 013°56'0 0.1
2015-May-23 06:33N 40°45' E 013°56'12 0.7
2015-May-22 12:33N 40°47' E 014°12'5 5.4
2015-May-22 11:34N 40°46' E 014°05'10 9.4
2015-May-22 10:32N 40°49' E 014°17'1616.2
2015-May-22 09:34N 40°45' E 013°56'0 0.5
2015-May-22 08:33N 40°45' E 013°56'8 2.6
2015-May-22 05:33N 40°46' E 014°07'1211.6
2015-May-22 04:33N 40°44' E 013°52'4 0.4
2015-May-21 19:12N 40°45' E 013°56'1622.3
2015-May-21 18:29N 40°49' E 014°17'7 7.7
2015-May-21 17:33N 40°46' E 014°08'1312.6
2015-May-21 16:34N 40°45' E 013°51'2019.1
2015-May-21 15:32N 40°49' E 014°17'1010.7
2015-May-21 14:34N 40°45' E 014°04'6 5.8
2015-May-21 13:33N 40°45' E 013°56'1611.2
2015-May-21 12:07N 40°50' E 014°16'1221.9
2015-May-21 11:33N 40°45' E 014°02'4 4.0
2015-May-21 10:33N 40°45' E 013°56'4 4.0
2015-May-21 09:33N 40°45' E 014°02'12 6.0
2015-May-21 07:28N 40°50' E 014°17'1617.8
2015-May-21 06:33N 40°45' E 013°56'0 0.1
2015-May-21 05:33N 40°45' E 013°56'10 1.0
2015-May-20 19:34N 40°47' E 014°09'6 1.5
2015-May-20 15:13N 40°51' E 014°16'0 0.2
2015-May-20 13:33N 40°50' E 014°16'3 3.1
2015-May-20 12:33N 40°48' E 014°13'  
Track history (hours):
 
Tides and Currents Weather Stations Pressure Air Temp Water Temp Dewpoint Dewpoint Depression Visibility Wind Speed Wind Dir Waves Ship Positions

Rosaria Lauro

Last reported at 2015-May-25 14:33 UTC. Time now 2015-May-25 15:31 UTC.
Position N 40°46' E 013°59'.

Length 40 m; draft 1.1 m.

Type: Passenger vessel. MMSI: 247055900.

Date/timePositionNaut miles runAvg speedWind from/ knotsBaromVisibWave heightAir tempDewpointWater temp
2015-May-25 14:33N 40°46' E 013°59'3 2.5
2015-May-25 13:33N 40°45' E 013°56'1611.7
2015-May-25 12:12N 40°50' E 014°16'1320.9
2015-May-25 11:34N 40°46' E 013°59'6 6.1
2015-May-25 10:33N 40°44' E 013°52'8 7.6
2015-May-25 09:33N 40°47' E 014°01'12 5.9
2015-May-25 07:32N 40°50' E 014°16'1616.5
2015-May-25 06:34N 40°45' E 013°56'0 0.0
2015-May-24 17:04N 40°45' E 013°56'814.7
2015-May-24 16:33N 40°47' E 014°06'9 8.7
2015-May-24 15:33N 40°50' E 014°17'1616.2
2015-May-24 14:33N 40°45' E 013°56'1611.5
2015-May-24 13:12N 40°50' E 014°15'914.4
2015-May-24 12:34N 40°46' E 014°04'4 3.6
2015-May-24 11:33N 40°47' E 014°09'6 5.7
2015-May-24 10:33N 40°49' E 014°16'1515.2
2015-May-24 09:34N 40°45' E 013°57'3 2.7
2015-May-24 08:34N 40°46' E 013°60'1311.8
2015-May-24 07:25N 40°50' E 014°17'1618.8
2015-May-24 06:33N 40°45' E 013°56'0 0.0
2015-May-23 19:11N 40°45' E 013°56'1421.6
2015-May-23 18:33N 40°48' E 014°14'5 5.5
2015-May-23 17:33N 40°46' E 014°07'8 8.1
2015-May-23 16:33N 40°45' E 013°57'1611.6
2015-May-23 15:13N 40°50' E 014°16'1522.6
2015-May-23 14:33N 40°45' E 013°58'1 1.2
2015-May-23 13:33N 40°45' E 013°57'1611.7
2015-May-23 12:13N 40°50' E 014°16'1421.3
2015-May-23 11:33N 40°44' E 013°59'6 5.9
2015-May-23 10:33N 40°44' E 013°52'10 9.6
2015-May-23 09:33N 40°46' E 014°04'10 9.5
2015-May-23 08:29N 40°50' E 014°16'1617.0
2015-May-23 07:34N 40°45' E 013°56'0 0.1
2015-May-23 06:33N 40°45' E 013°56'12 0.7
2015-May-22 12:33N 40°47' E 014°12'5 5.4
2015-May-22 11:34N 40°46' E 014°05'10 9.4
2015-May-22 10:32N 40°49' E 014°17'1616.2
2015-May-22 09:34N 40°45' E 013°56'0 0.5
2015-May-22 08:33N 40°45' E 013°56'8 2.6
2015-May-22 05:33N 40°46' E 014°07'1211.6
2015-May-22 04:33N 40°44' E 013°52'4 0.4
2015-May-21 19:12N 40°45' E 013°56'1622.3
2015-May-21 18:29N 40°49' E 014°17'7 7.7
2015-May-21 17:33N 40°46' E 014°08'1312.6
2015-May-21 16:34N 40°45' E 013°51'2019.1
2015-May-21 15:32N 40°49' E 014°17'1010.7
2015-May-21 14:34N 40°45' E 014°04'6 5.8
2015-May-21 13:33N 40°45' E 013°56'1611.2
2015-May-21 12:07N 40°50' E 014°16'1221.9
2015-May-21 11:33N 40°45' E 014°02'4 4.0
2015-May-21 10:33N 40°45' E 013°56'4 4.0
2015-May-21 09:33N 40°45' E 014°02'12 6.0
2015-May-21 07:28N 40°50' E 014°17'1617.8
2015-May-21 06:33N 40°45' E 013°56'0 0.1
2015-May-21 05:33N 40°45' E 013°56'10 1.0
2015-May-20 19:34N 40°47' E 014°09'6 1.5
2015-May-20 15:13N 40°51' E 014°16'0 0.2
2015-May-20 13:33N 40°50' E 014°16'3 3.1
2015-May-20 12:33N 40°48' E 014°13'  

Dump ship's entire track history